This is the latest recevied weather packets stored in our database for station/object VK2OB. If no packets are shown the sender has not sent any weather packets the latest 10 day(s).
| Time | Temp. | Humidity | Pressure | Rain* | Wind** | Luminosity | Snow |
|---|---|---|---|---|---|---|---|
| 1778206687 | 20.56° C | 34% | 1016.9 hPa | 0 mm | - | - | - |
| 1778206388 | 20.56° C | 33% | 1016.9 hPa | 0 mm | - | - | - |
| 1778206089 | 21.67° C | 31% | 1017.1 hPa | 0 mm | - | - | - |
| 1778205790 | 21.67° C | 32% | 1017.2 hPa | 0 mm | - | - | - |
| 1778205491 | 21.67° C | 31% | 1017.4 hPa | 0 mm | - | - | - |
| 1778205192 | 21.67° C | 31% | 1017.4 hPa | 0 mm | - | - | - |
| 1778204893 | 21.67° C | 32% | 1017.5 hPa | 0 mm | - | - | - |
| 1778204594 | 21.67° C | 32% | 1017.7 hPa | 0 mm | - | - | - |
| 1778204295 | 20.56° C | 36% | 1017.7 hPa | 0 mm | - | - | - |
| 1778203996 | 20.56° C | 35% | 1017.8 hPa | 0 mm | - | - | - |
| 1778203697 | 20° C | 36% | 1018 hPa | 0 mm | - | - | - |
| 1778203397 | 19.44° C | 38% | 1018 hPa | 0 mm | - | - | - |
| 1778203099 | 18.33° C | 41% | 1018 hPa | 0 mm | - | - | - |
| 1778202800 | 17.78° C | 41% | 1018.2 hPa | 0 mm | - | - | - |
| 1778202501 | 16.67° C | 42% | 1018.1 hPa | 0 mm | - | - | - |
| 1778202202 | 16.67° C | 42% | 1018.1 hPa | 0 mm | - | - | - |
| 1778201902 | 16.67° C | 43% | 1018.2 hPa | 0 mm | - | - | - |
| 1778201602 | 16.67° C | 43% | 1018.1 hPa | 0 mm | - | - | - |
| 1778201303 | 16.67° C | 44% | 1018.3 hPa | 0 mm | - | - | - |
| 1778201004 | 16.11° C | 47% | 1018.4 hPa | 0 mm | - | - | - |
| 1778200705 | 15.56° C | 48% | 1018.4 hPa | 0 mm | - | - | - |
| 1778200406 | 15.56° C | 50% | 1018.3 hPa | 0 mm | - | - | - |
| 1778200107 | 15° C | 49% | 1018.4 hPa | 0 mm | - | - | - |
| 1778199808 | 15° C | 47% | 1018.5 hPa | 0 mm | - | - | - |
| 1778199509 | 15° C | 48% | 1018.5 hPa | 0 mm | - | - | - |
* Rain latest hour (hover to see other rain measurements)
** Current wind speed in m/s (hover to see current wind gust speed)